sensor_id;sensor_type;location;lat;lon;timestamp;pressure;altitude;pressure_sealevel;temperature;humidity
54407;BME280;40313;50.308;30.374;2022-09-29T00:02:03;98680.50;;;7.44;100.00
54407;BME280;40313;50.308;30.374;2022-09-29T00:04:30;98680.81;;;7.38;100.00
54407;BME280;40313;50.308;30.374;2022-09-29T00:06:58;98678.41;;;7.35;100.00
54407;BME280;40313;50.308;30.374;2022-09-29T00:09:25;98676.19;;;7.29;100.00
54407;BME280;40313;50.308;30.374;2022-09-29T00:11:53;98689.16;;;7.29;100.00
54407;BME280;40313;50.308;30.374;2022-09-29T00:14:20;98684.88;;;7.28;100.00
54407;BME280;40313;50.308;30.374;2022-09-29T00:16:46;98689.06;;;7.31;100.00
54407;BME280;40313;50.308;30.374;2022-09-29T00:19:13;98693.41;;;7.30;100.00
54407;BME280;40313;50.308;30.374;2022-09-29T00:21:40;98690.81;;;7.30;100.00
54407;BME280;40313;50.308;30.374;2022-09-29T00:24:08;98703.13;;;7.26;100.00
54407;BME280;40313;50.308;30.374;2022-09-29T00:26:34;98706.00;;;7.22;100.00
54407;BME280;40313;50.308;30.374;2022-09-29T00:29:01;98693.28;;;7.17;100.00
54407;BME280;40313;50.308;30.374;2022-09-29T00:31:29;98707.84;;;7.20;100.00
54407;BME280;40313;50.308;30.374;2022-09-29T00:33:56;98698.13;;;7.23;100.00
54407;BME280;40313;50.308;30.374;2022-09-29T00:36:24;98708.59;;;7.22;100.00
54407;BME280;40313;50.308;30.374;2022-09-29T00:38:54;98708.00;;;7.17;100.00
54407;BME280;40313;50.308;30.374;2022-09-29T00:41:24;98706.53;;;7.13;100.00
54407;BME280;40313;50.308;30.374;2022-09-29T00:43:55;98710.22;;;7.08;100.00
54407;BME280;40313;50.308;30.374;2022-09-29T00:46:33;98711.38;;;7.03;100.00
54407;BME280;40313;50.308;30.374;2022-09-29T00:49:05;98710.94;;;6.96;100.00
54407;BME280;40313;50.308;30.374;2022-09-29T00:51:35;98712.84;;;6.92;100.00
54407;BME280;40313;50.308;30.374;2022-09-29T00:54:03;98715.44;;;6.92;100.00
54407;BME280;40313;50.308;30.374;2022-09-29T00:56:33;98726.81;;;6.90;100.00
54407;BME280;40313;50.308;30.374;2022-09-29T00:59:05;98725.25;;;6.87;100.00
54407;BME280;40313;50.308;30.374;2022-09-29T01:01:32;98737.34;;;6.87;100.00
54407;BME280;40313;50.308;30.374;2022-09-29T01:04:02;98739.59;;;6.77;100.00
54407;BME280;40313;50.308;30.374;2022-09-29T01:06:33;98731.19;;;6.73;100.00
54407;BME280;40313;50.308;30.374;2022-09-29T01:09:03;98734.03;;;6.69;100.00
54407;BME280;40313;50.308;30.374;2022-09-29T01:11:33;98737.63;;;6.66;100.00
54407;BME280;40313;50.308;30.374;2022-09-29T01:14:02;98737.63;;;6.66;100.00
54407;BME280;40313;50.308;30.374;2022-09-29T01:16:30;98742.91;;;6.65;100.00
54407;BME280;40313;50.308;30.374;2022-09-29T01:18:57;98741.72;;;6.70;100.00
54407;BME280;40313;50.308;30.374;2022-09-29T01:21:32;98736.53;;;6.70;100.00
54407;BME280;40313;50.308;30.374;2022-09-29T01:27:12;98740.69;;;6.73;100.00
54407;BME280;40313;50.308;30.374;2022-09-29T01:30:00;98749.25;;;6.75;100.00
54407;BME280;40313;50.308;30.374;2022-09-29T01:32:39;98749.88;;;6.79;100.00
54407;BME280;40313;50.308;30.374;2022-09-29T01:35:15;98749.88;;;6.79;100.00
54407;BME280;40313;50.308;30.374;2022-09-29T01:37:57;98752.00;;;6.88;100.00
54407;BME280;40313;50.308;30.374;2022-09-29T01:40:28;98753.22;;;6.97;100.00
54407;BME280;40313;50.308;30.374;2022-09-29T01:43:03;98751.63;;;7.10;100.00
54407;BME280;40313;50.308;30.374;2022-09-29T01:45:33;98757.31;;;7.17;100.00
54407;BME280;40313;50.308;30.374;2022-09-29T01:48:04;98766.59;;;7.21;100.00
54407;BME280;40313;50.308;30.374;2022-09-29T01:50:35;98765.13;;;7.31;100.00
54407;BME280;40313;50.308;30.374;2022-09-29T01:53:08;98762.66;;;7.44;100.00
54407;BME280;40313;50.308;30.374;2022-09-29T01:55:40;98762.25;;;7.52;100.00
54407;BME280;40313;50.308;30.374;2022-09-29T01:58:13;98761.41;;;7.66;100.00
54407;BME280;40313;50.308;30.374;2022-09-29T02:00:48;98773.41;;;7.83;100.00
54407;BME280;40313;50.308;30.374;2022-09-29T02:03:19;98771.50;;;7.86;100.00
54407;BME280;40313;50.308;30.374;2022-09-29T02:05:51;98774.47;;;7.94;100.00
54407;BME280;40313;50.308;30.374;2022-09-29T02:08:23;98782.72;;;8.01;100.00
54407;BME280;40313;50.308;30.374;2022-09-29T02:10:54;98776.59;;;8.02;100.00
54407;BME280;40313;50.308;30.374;2022-09-29T02:13:25;98781.69;;;8.04;100.00
54407;BME280;40313;50.308;30.374;2022-09-29T02:15:56;98778.09;;;8.06;100.00
54407;BME280;40313;50.308;30.374;2022-09-29T02:18:28;98780.50;;;8.09;100.00
54407;BME280;40313;50.308;30.374;2022-09-29T02:20:55;98775.31;;;8.09;100.00
54407;BME280;40313;50.308;30.374;2022-09-29T02:23:22;98778.81;;;8.08;100.00
54407;BME280;40313;50.308;30.374;2022-09-29T02:25:49;98783.81;;;8.11;100.00
54407;BME280;40313;50.308;30.374;2022-09-29T02:28:16;98787.19;;;8.13;100.00
54407;BME280;40313;50.308;30.374;2022-09-29T02:30:44;98793.22;;;8.14;100.00
54407;BME280;40313;50.308;30.374;2022-09-29T02:33:19;98786.28;;;8.15;100.00
54407;BME280;40313;50.308;30.374;2022-09-29T02:35:55;98791.47;;;8.15;100.00
54407;BME280;40313;50.308;30.374;2022-09-29T02:38:29;98781.81;;;8.17;100.00
54407;BME280;40313;50.308;30.374;2022-09-29T02:41:05;98775.59;;;8.19;100.00
54407;BME280;40313;50.308;30.374;2022-09-29T02:43:49;98781.41;;;8.23;100.00
54407;BME280;40313;50.308;30.374;2022-09-29T02:46:36;98771.59;;;8.13;100.00
54407;BME280;40313;50.308;30.374;2022-09-29T02:49:26;98773.53;;;7.95;100.00
54407;BME280;40313;50.308;30.374;2022-09-29T02:52:00;98774.81;;;7.88;100.00
54407;BME280;40313;50.308;30.374;2022-09-29T02:54:42;98775.09;;;7.84;100.00
54407;BME280;40313;50.308;30.374;2022-09-29T02:57:16;98773.41;;;7.83;100.00
54407;BME280;40313;50.308;30.374;2022-09-29T02:59:53;98783.34;;;7.76;100.00
54407;BME280;40313;50.308;30.374;2022-09-29T03:02:23;98781.66;;;7.75;100.00
54407;BME280;40313;50.308;30.374;2022-09-29T03:04:50;98783.16;;;7.79;100.00
54407;BME280;40313;50.308;30.374;2022-09-29T03:07:19;98784.56;;;7.85;100.00
54407;BME280;40313;50.308;30.374;2022-09-29T03:09:46;98783.47;;;7.89;100.00
54407;BME280;40313;50.308;30.374;2022-09-29T03:12:12;98779.91;;;7.90;100.00
54407;BME280;40313;50.308;30.374;2022-09-29T03:14:39;98778.28;;;7.89;100.00
54407;BME280;40313;50.308;30.374;2022-09-29T03:17:06;98783.28;;;7.92;100.00
54407;BME280;40313;50.308;30.374;2022-09-29T03:19:32;98784.28;;;7.89;100.00
54407;BME280;40313;50.308;30.374;2022-09-29T03:21:59;98780.88;;;7.89;100.00
54407;BME280;40313;50.308;30.374;2022-09-29T03:24:27;98785.09;;;7.90;100.00
54407;BME280;40313;50.308;30.374;2022-09-29T03:26:53;98781.41;;;7.94;100.00
54407;BME280;40313;50.308;30.374;2022-09-29T03:29:20;98784.59;;;7.99;100.00
54407;BME280;40313;50.308;30.374;2022-09-29T03:31:46;98789.41;;;8.05;100.00
54407;BME280;40313;50.308;30.374;2022-09-29T03:34:13;98788.19;;;8.11;100.00
54407;BME280;40313;50.308;30.374;2022-09-29T03:36:40;98784.31;;;8.18;100.00
54407;BME280;40313;50.308;30.374;2022-09-29T03:39:07;98793.50;;;8.24;100.00
54407;BME280;40313;50.308;30.374;2022-09-29T03:41:35;98792.56;;;8.25;100.00
54407;BME280;40313;50.308;30.374;2022-09-29T03:44:02;98795.53;;;8.19;100.00
54407;BME280;40313;50.308;30.374;2022-09-29T03:46:28;98799.91;;;8.18;100.00
54407;BME280;40313;50.308;30.374;2022-09-29T03:48:55;98808.34;;;8.22;100.00
54407;BME280;40313;50.308;30.374;2022-09-29T03:51:22;98814.00;;;8.28;100.00
54407;BME280;40313;50.308;30.374;2022-09-29T03:53:49;98817.06;;;8.35;100.00
54407;BME280;40313;50.308;30.374;2022-09-29T03:56:15;98823.66;;;8.41;100.00
54407;BME280;40313;50.308;30.374;2022-09-29T03:58:43;98820.03;;;8.43;100.00
54407;BME280;40313;50.308;30.374;2022-09-29T04:01:10;98825.09;;;8.46;100.00
54407;BME280;40313;50.308;30.374;2022-09-29T04:03:39;98825.72;;;8.50;100.00
54407;BME280;40313;50.308;30.374;2022-09-29T04:06:06;98833.06;;;8.58;100.00
54407;BME280;40313;50.308;30.374;2022-09-29T04:08:34;98833.53;;;8.64;100.00
54407;BME280;40313;50.308;30.374;2022-09-29T04:11:01;98833.25;;;8.69;100.00
54407;BME280;40313;50.308;30.374;2022-09-29T04:13:28;98836.13;;;8.79;100.00
54407;BME280;40313;50.308;30.374;2022-09-29T04:15:57;98828.03;;;8.84;100.00
54407;BME280;40313;50.308;30.374;2022-09-29T04:18:24;98829.31;;;8.91;100.00
54407;BME280;40313;50.308;30.374;2022-09-29T04:20:51;98831.53;;;8.97;100.00
54407;BME280;40313;50.308;30.374;2022-09-29T04:23:18;98829.38;;;9.04;100.00
54407;BME280;40313;50.308;30.374;2022-09-29T04:25:45;98835.03;;;9.10;100.00
54407;BME280;40313;50.308;30.374;2022-09-29T04:28:12;98838.16;;;9.15;100.00
54407;BME280;40313;50.308;30.374;2022-09-29T04:30:39;98841.13;;;9.24;100.00
54407;BME280;40313;50.308;30.374;2022-09-29T04:33:07;98840.72;;;9.30;100.00
54407;BME280;40313;50.308;30.374;2022-09-29T04:35:34;98836.78;;;9.37;100.00
54407;BME280;40313;50.308;30.374;2022-09-29T04:38:00;98839.75;;;9.45;100.00
54407;BME280;40313;50.308;30.374;2022-09-29T04:40:27;98841.94;;;9.51;100.00
54407;BME280;40313;50.308;30.374;2022-09-29T04:42:54;98839.06;;;9.56;100.00
54407;BME280;40313;50.308;30.374;2022-09-29T04:45:20;98836.03;;;9.62;100.00
54407;BME280;40313;50.308;30.374;2022-09-29T04:47:47;98823.47;;;9.69;100.00
54407;BME280;40313;50.308;30.374;2022-09-29T04:50:15;98829.09;;;9.76;100.00
54407;BME280;40313;50.308;30.374;2022-09-29T04:52:42;98821.91;;;9.79;100.00
54407;BME280;40313;50.308;30.374;2022-09-29T04:55:09;98834.41;;;9.87;100.00
54407;BME280;40313;50.308;30.374;2022-09-29T04:57:36;98827.88;;;9.94;100.00
54407;BME280;40313;50.308;30.374;2022-09-29T05:00:04;98816.75;;;10.05;100.00
54407;BME280;40313;50.308;30.374;2022-09-29T05:02:32;98824.88;;;10.13;100.00
54407;BME280;40313;50.308;30.374;2022-09-29T05:04:58;98826.84;;;10.23;100.00
54407;BME280;40313;50.308;30.374;2022-09-29T05:07:26;98826.13;;;10.33;100.00
54407;BME280;40313;50.308;30.374;2022-09-29T05:09:53;98829.69;;;10.45;100.00
54407;BME280;40313;50.308;30.374;2022-09-29T05:12:19;98842.00;;;10.56;100.00
54407;BME280;40313;50.308;30.374;2022-09-29T05:14:46;98841.47;;;10.64;100.00
54407;BME280;40313;50.308;30.374;2022-09-29T05:17:12;98846.97;;;10.72;100.00
54407;BME280;40313;50.308;30.374;2022-09-29T05:19:39;98844.94;;;10.88;100.00
54407;BME280;40313;50.308;30.374;2022-09-29T05:22:05;98837.84;;;11.03;100.00
54407;BME280;40313;50.308;30.374;2022-09-29T05:24:33;98841.09;;;11.18;100.00
54407;BME280;40313;50.308;30.374;2022-09-29T05:27:00;98842.75;;;11.32;100.00
54407;BME280;40313;50.308;30.374;2022-09-29T05:29:27;98851.44;;;11.44;100.00
54407;BME280;40313;50.308;30.374;2022-09-29T05:31:53;98846.34;;;11.43;100.00
54407;BME280;40313;50.308;30.374;2022-09-29T05:34:20;98843.94;;;11.64;100.00
54407;BME280;40313;50.308;30.374;2022-09-29T05:36:47;98843.88;;;11.76;100.00
54407;BME280;40313;50.308;30.374;2022-09-29T05:39:14;98838.19;;;11.83;100.00
54407;BME280;40313;50.308;30.374;2022-09-29T05:41:43;98837.94;;;11.86;100.00
54407;BME280;40313;50.308;30.374;2022-09-29T05:44:09;98842.66;;;11.93;100.00
54407;BME280;40313;50.308;30.374;2022-09-29T05:46:36;98842.53;;;11.95;100.00
54407;BME280;40313;50.308;30.374;2022-09-29T05:49:03;98840.38;;;12.00;100.00
54407;BME280;40313;50.308;30.374;2022-09-29T05:51:30;98849.66;;;12.04;100.00
54407;BME280;40313;50.308;30.374;2022-09-29T05:53:56;98851.00;;;12.10;100.00
54407;BME280;40313;50.308;30.374;2022-09-29T05:56:25;98845.53;;;12.13;100.00
54407;BME280;40313;50.308;30.374;2022-09-29T05:58:53;98840.09;;;12.16;100.00
54407;BME280;40313;50.308;30.374;2022-09-29T06:01:22;98852.94;;;12.19;100.00
54407;BME280;40313;50.308;30.374;2022-09-29T06:03:48;98854.00;;;12.17;100.00
54407;BME280;40313;50.308;30.374;2022-09-29T06:06:19;98862.22;;;12.23;100.00
54407;BME280;40313;50.308;30.374;2022-09-29T06:08:46;98860.06;;;12.28;100.00
54407;BME280;40313;50.308;30.374;2022-09-29T06:11:14;98859.81;;;12.32;100.00
54407;BME280;40313;50.308;30.374;2022-09-29T06:13:43;98858.41;;;12.27;100.00
54407;BME280;40313;50.308;30.374;2022-09-29T06:16:12;98862.56;;;12.30;100.00
54407;BME280;40313;50.308;30.374;2022-09-29T06:18:39;98856.38;;;12.31;100.00
54407;BME280;40313;50.308;30.374;2022-09-29T06:21:08;98861.50;;;12.33;100.00
54407;BME280;40313;50.308;30.374;2022-09-29T06:23:36;98860.31;;;12.37;100.00
54407;BME280;40313;50.308;30.374;2022-09-29T06:26:05;98858.44;;;12.39;100.00
54407;BME280;40313;50.308;30.374;2022-09-29T06:28:32;98857.22;;;12.43;100.00
54407;BME280;40313;50.308;30.374;2022-09-29T06:30:59;98857.72;;;12.48;100.00
54407;BME280;40313;50.308;30.374;2022-09-29T06:33:27;98852.13;;;12.53;100.00
54407;BME280;40313;50.308;30.374;2022-09-29T06:35:54;98855.34;;;12.56;100.00
54407;BME280;40313;50.308;30.374;2022-09-29T06:38:39;98862.72;;;12.62;100.00
54407;BME280;40313;50.308;30.374;2022-09-29T06:41:06;98872.13;;;12.65;100.00
54407;BME280;40313;50.308;30.374;2022-09-29T06:43:34;98871.19;;;12.66;100.00
54407;BME280;40313;50.308;30.374;2022-09-29T06:46:00;98862.84;;;12.72;100.00
54407;BME280;40313;50.308;30.374;2022-09-29T06:48:28;98879.38;;;12.84;100.00
54407;BME280;40313;50.308;30.374;2022-09-29T06:50:55;98878.41;;;12.96;100.00
54407;BME280;40313;50.308;30.374;2022-09-29T06:53:21;98869.34;;;13.12;100.00
54407;BME280;40313;50.308;30.374;2022-09-29T06:55:51;98876.09;;;13.26;100.00
54407;BME280;40313;50.308;30.374;2022-09-29T06:58:17;98874.34;;;13.38;100.00
54407;BME280;40313;50.308;30.374;2022-09-29T07:00:44;98871.81;;;13.47;100.00
54407;BME280;40313;50.308;30.374;2022-09-29T07:03:11;98880.09;;;13.53;100.00
54407;BME280;40313;50.308;30.374;2022-09-29T07:05:39;98884.16;;;13.57;100.00
54407;BME280;40313;50.308;30.374;2022-09-29T07:08:06;98883.50;;;13.64;100.00
54407;BME280;40313;50.308;30.374;2022-09-29T07:10:33;98888.03;;;13.74;100.00
54407;BME280;40313;50.308;30.374;2022-09-29T07:12:59;98890.00;;;13.81;100.00
54407;BME280;40313;50.308;30.374;2022-09-29T07:15:26;98883.91;;;13.92;100.00
54407;BME280;40313;50.308;30.374;2022-09-29T07:17:55;98882.75;;;14.06;100.00
54407;BME280;40313;50.308;30.374;2022-09-29T07:20:22;98880.91;;;14.18;100.00
54407;BME280;40313;50.308;30.374;2022-09-29T07:22:50;98877.81;;;14.34;100.00
54407;BME280;40313;50.308;30.374;2022-09-29T07:25:16;98869.47;;;14.50;100.00
54407;BME280;40313;50.308;30.374;2022-09-29T07:27:43;98861.41;;;14.63;100.00
54407;BME280;40313;50.308;30.374;2022-09-29T07:30:10;98864.13;;;14.82;100.00
54407;BME280;40313;50.308;30.374;2022-09-29T07:32:36;98864.75;;;15.06;100.00
54407;BME280;40313;50.308;30.374;2022-09-29T07:35:04;98863.84;;;15.26;100.00
54407;BME280;40313;50.308;30.374;2022-09-29T07:37:31;98852.22;;;15.38;100.00
54407;BME280;40313;50.308;30.374;2022-09-29T07:39:59;98842.16;;;15.44;100.00
54407;BME280;40313;50.308;30.374;2022-09-29T07:42:27;98845.31;;;15.47;100.00
54407;BME280;40313;50.308;30.374;2022-09-29T07:44:53;98849.31;;;15.51;100.00
54407;BME280;40313;50.308;30.374;2022-09-29T07:47:21;98856.53;;;15.59;100.00
54407;BME280;40313;50.308;30.374;2022-09-29T07:49:47;98858.34;;;15.68;100.00
54407;BME280;40313;50.308;30.374;2022-09-29T07:52:14;98861.91;;;15.77;100.00
54407;BME280;40313;50.308;30.374;2022-09-29T07:54:41;98861.66;;;15.80;100.00
54407;BME280;40313;50.308;30.374;2022-09-29T07:57:09;98866.41;;;15.86;100.00
54407;BME280;40313;50.308;30.374;2022-09-29T07:59:35;98871.63;;;16.06;100.00
54407;BME280;40313;50.308;30.374;2022-09-29T08:02:02;98876.31;;;16.22;100.00
54407;BME280;40313;50.308;30.374;2022-09-29T08:04:28;98882.22;;;16.44;100.00
54407;BME280;40313;50.308;30.374;2022-09-29T08:06:55;98874.66;;;16.68;100.00
54407;BME280;40313;50.308;30.374;2022-09-29T08:09:21;98874.88;;;16.85;100.00
54407;BME280;40313;50.308;30.374;2022-09-29T08:11:49;98871.09;;;16.97;100.00
54407;BME280;40313;50.308;30.374;2022-09-29T08:14:16;98868.88;;;17.02;100.00
54407;BME280;40313;50.308;30.374;2022-09-29T08:16:43;98865.25;;;17.03;100.00
54407;BME280;40313;50.308;30.374;2022-09-29T08:19:09;98855.00;;;17.00;100.00
54407;BME280;40313;50.308;30.374;2022-09-29T08:21:36;98858.19;;;17.04;100.00
54407;BME280;40313;50.308;30.374;2022-09-29T08:24:03;98859.25;;;17.11;100.00
54407;BME280;40313;50.308;30.374;2022-09-29T08:26:32;98851.84;;;17.15;100.00
54407;BME280;40313;50.308;30.374;2022-09-29T08:28:59;98855.94;;;17.27;100.00
54407;BME280;40313;50.308;30.374;2022-09-29T08:31:27;98865.47;;;17.38;100.00
54407;BME280;40313;50.308;30.374;2022-09-29T08:33:55;98851.53;;;17.45;100.00
54407;BME280;40313;50.308;30.374;2022-09-29T08:36:23;98856.03;;;17.53;100.00
54407;BME280;40313;50.308;30.374;2022-09-29T08:38:52;98852.66;;;17.61;100.00
54407;BME280;40313;50.308;30.374;2022-09-29T08:41:30;98845.41;;;17.63;100.00
54407;BME280;40313;50.308;30.374;2022-09-29T08:44:02;98864.50;;;17.75;100.00
54407;BME280;40313;50.308;30.374;2022-09-29T08:46:33;98864.19;;;17.78;100.00
54407;BME280;40313;50.308;30.374;2022-09-29T08:49:04;98858.91;;;17.78;100.00
54407;BME280;40313;50.308;30.374;2022-09-29T08:51:36;98856.78;;;17.82;100.00
54407;BME280;40313;50.308;30.374;2022-09-29T08:54:08;98856.59;;;17.93;100.00
54407;BME280;40313;50.308;30.374;2022-09-29T08:56:39;98841.78;;;18.00;100.00
54407;BME280;40313;50.308;30.374;2022-09-29T08:59:08;98847.78;;;18.10;100.00
54407;BME280;40313;50.308;30.374;2022-09-29T09:01:46;98842.50;;;18.10;100.00
54407;BME280;40313;50.308;30.374;2022-09-29T09:04:33;98836.56;;;18.08;100.00
54407;BME280;40313;50.308;30.374;2022-09-29T09:07:08;98834.97;;;18.16;100.00
54407;BME280;40313;50.308;30.374;2022-09-29T09:09:46;98840.56;;;18.12;100.00
54407;BME280;40313;50.308;30.374;2022-09-29T09:12:39;98837.47;;;18.17;100.00
54407;BME280;40313;50.308;30.374;2022-09-29T09:15:24;98839.03;;;18.28;100.00
54407;BME280;40313;50.308;30.374;2022-09-29T09:18:06;98836.13;;;18.39;100.00
54407;BME280;40313;50.308;30.374;2022-09-29T09:20:43;98830.91;;;18.56;100.00
54407;BME280;40313;50.308;30.374;2022-09-29T09:23:15;98834.97;;;18.76;100.00
54407;BME280;40313;50.308;30.374;2022-09-29T09:25:48;98830.94;;;18.98;100.00
54407;BME280;40313;50.308;30.374;2022-09-29T09:28:18;98833.50;;;19.16;100.00
54407;BME280;40313;50.308;30.374;2022-09-29T09:30:52;98832.84;;;19.31;100.00
54407;BME280;40313;50.308;30.374;2022-09-29T09:33:26;98834.34;;;19.33;100.00
54407;BME280;40313;50.308;30.374;2022-09-29T09:36:00;98829.72;;;19.44;100.00
54407;BME280;40313;50.308;30.374;2022-09-29T09:38:39;98833.88;;;19.71;100.00
54407;BME280;40313;50.308;30.374;2022-09-29T09:41:07;98831.94;;;19.81;100.00
54407;BME280;40313;50.308;30.374;2022-09-29T09:43:38;98830.09;;;19.90;100.00
54407;BME280;40313;50.308;30.374;2022-09-29T09:46:13;98831.59;;;20.01;100.00
54407;BME280;40313;50.308;30.374;2022-09-29T09:48:48;98833.09;;;20.03;100.00
54407;BME280;40313;50.308;30.374;2022-09-29T09:51:29;98833.09;;;20.03;100.00
54407;BME280;40313;50.308;30.374;2022-09-29T09:54:03;98833.22;;;20.10;100.00
54407;BME280;40313;50.308;30.374;2022-09-29T09:56:42;98835.53;;;20.13;100.00
54407;BME280;40313;50.308;30.374;2022-09-29T09:59:21;98832.06;;;20.21;100.00
54407;BME280;40313;50.308;30.374;2022-09-29T10:01:50;98835.00;;;20.34;100.00
54407;BME280;40313;50.308;30.374;2022-09-29T10:04:18;98828.53;;;20.37;99.81
54407;BME280;40313;50.308;30.374;2022-09-29T10:06:45;98833.38;;;20.33;99.77
54407;BME280;40313;50.308;30.374;2022-09-29T10:09:12;98843.34;;;20.07;100.00
54407;BME280;40313;50.308;30.374;2022-09-29T10:11:41;98838.53;;;20.02;100.00
54407;BME280;40313;50.308;30.374;2022-09-29T10:14:12;98839.19;;;20.04;100.00
54407;BME280;40313;50.308;30.374;2022-09-29T10:16:43;98843.97;;;20.09;100.00
54407;BME280;40313;50.308;30.374;2022-09-29T10:19:11;98843.16;;;20.16;100.00
54407;BME280;40313;50.308;30.374;2022-09-29T10:21:41;98836.53;;;20.04;100.00
54407;BME280;40313;50.308;30.374;2022-09-29T10:24:21;98838.53;;;19.85;98.99
54407;BME280;40313;50.308;30.374;2022-09-29T10:26:49;98837.50;;;19.62;99.33
54407;BME280;40313;50.308;30.374;2022-09-29T10:29:22;98840.81;;;19.39;100.00
54407;BME280;40313;50.308;30.374;2022-09-29T10:32:00;98845.69;;;19.17;99.26
54407;BME280;40313;50.308;30.374;2022-09-29T10:34:28;98843.38;;;19.14;98.21
54407;BME280;40313;50.308;30.374;2022-09-29T10:36:57;98835.13;;;19.17;99.23
54407;BME280;40313;50.308;30.374;2022-09-29T10:39:30;98839.28;;;19.28;100.00
54407;BME280;40313;50.308;30.374;2022-09-29T10:41:57;98836.84;;;19.35;98.01
54407;BME280;40313;50.308;30.374;2022-09-29T10:44:30;98833.03;;;19.46;97.57
54407;BME280;40313;50.308;30.374;2022-09-29T10:46:57;98837.50;;;19.45;96.92
54407;BME280;40313;50.308;30.374;2022-09-29T10:49:25;98834.50;;;19.40;96.33
54407;BME280;40313;50.308;30.374;2022-09-29T10:51:58;98830.84;;;19.33;94.09
54407;BME280;40313;50.308;30.374;2022-09-29T10:54:28;98833.03;;;19.29;94.48
54407;BME280;40313;50.308;30.374;2022-09-29T10:56:56;98821.59;;;19.29;97.67
54407;BME280;40313;50.308;30.374;2022-09-29T10:59:24;98827.56;;;19.31;96.88
54407;BME280;40313;50.308;30.374;2022-09-29T11:01:54;98831.34;;;19.28;94.27
54407;BME280;40313;50.308;30.374;2022-09-29T11:04:23;98827.06;;;19.19;89.96
54407;BME280;40313;50.308;30.374;2022-09-29T11:06:52;98835.44;;;19.14;89.68
54407;BME280;40313;50.308;30.374;2022-09-29T11:09:28;98831.31;;;19.12;88.63
54407;BME280;40313;50.308;30.374;2022-09-29T11:11:57;98824.88;;;19.14;90.30
54407;BME280;40313;50.308;30.374;2022-09-29T11:14:28;98824.25;;;19.29;91.10
54407;BME280;40313;50.308;30.374;2022-09-29T11:16:56;98829.53;;;19.29;94.35
54407;BME280;40313;50.308;30.374;2022-09-29T11:19:24;98828.22;;;19.33;95.31
54407;BME280;40313;50.308;30.374;2022-09-29T11:22:19;98823.75;;;19.42;94.85
54407;BME280;40313;50.308;30.374;2022-09-29T11:25:16;98827.91;;;19.44;94.45
54407;BME280;40313;50.308;30.374;2022-09-29T11:27:58;98831.56;;;19.51;95.76
54407;BME280;40313;50.308;30.374;2022-09-29T11:30:38;98829.59;;;19.54;96.08
54407;BME280;40313;50.308;30.374;2022-09-29T11:33:19;98832.06;;;19.55;97.39
54407;BME280;40313;50.308;30.374;2022-09-29T11:35:57;98827.41;;;19.57;96.65
54407;BME280;40313;50.308;30.374;2022-09-29T11:38:40;98823.94;;;19.40;97.52
54407;BME280;40313;50.308;30.374;2022-09-29T11:41:39;98820.16;;;19.59;99.67
54407;BME280;40313;50.308;30.374;2022-09-29T11:44:30;98822.63;;;19.69;100.00
54407;BME280;40313;50.308;30.374;2022-09-29T11:47:13;98831.25;;;19.71;96.16
54407;BME280;40313;50.308;30.374;2022-09-29T11:50:00;98829.09;;;19.66;97.55
54407;BME280;40313;50.308;30.374;2022-09-29T11:52:47;98826.94;;;19.70;95.17
54407;BME280;40313;50.308;30.374;2022-09-29T11:55:38;98841.19;;;19.94;94.67
54407;BME280;40313;50.308;30.374;2022-09-29T11:58:22;98831.25;;;20.12;91.82
54407;BME280;40313;50.308;30.374;2022-09-29T12:01:00;98841.31;;;20.25;89.64
54407;BME280;40313;50.308;30.374;2022-09-29T12:03:35;98839.50;;;20.17;90.86
54407;BME280;40313;50.308;30.374;2022-09-29T12:06:20;98840.19;;;20.03;89.15
54407;BME280;40313;50.308;30.374;2022-09-29T12:09:00;98843.16;;;19.92;88.12
54407;BME280;40313;50.308;30.374;2022-09-29T12:11:38;98842.34;;;20.08;88.37
54407;BME280;40313;50.308;30.374;2022-09-29T12:14:13;98831.56;;;20.17;91.88
54407;BME280;40313;50.308;30.374;2022-09-29T12:16:48;98843.28;;;20.31;90.93
54407;BME280;40313;50.308;30.374;2022-09-29T12:19:19;98839.13;;;20.45;91.50
54407;BME280;40313;50.308;30.374;2022-09-29T12:21:50;98828.00;;;20.58;90.29
54407;BME280;40313;50.308;30.374;2022-09-29T12:24:19;98836.25;;;20.71;94.66
54407;BME280;40313;50.308;30.374;2022-09-29T12:26:48;98834.44;;;20.72;95.65
54407;BME280;40313;50.308;30.374;2022-09-29T12:29:25;98831.47;;;20.67;99.46
54407;BME280;40313;50.308;30.374;2022-09-29T12:31:57;98829.97;;;20.56;100.00
54407;BME280;40313;50.308;30.374;2022-09-29T12:34:35;98835.78;;;20.51;100.00
54407;BME280;40313;50.308;30.374;2022-09-29T12:37:08;98829.97;;;20.56;100.00
54407;BME280;40313;50.308;30.374;2022-09-29T12:39:41;98831.16;;;20.53;100.00
54407;BME280;40313;50.308;30.374;2022-09-29T12:42:20;98829.00;;;20.49;100.00
54407;BME280;40313;50.308;30.374;2022-09-29T12:44:53;98823.06;;;20.38;100.00
54407;BME280;40313;50.308;30.374;2022-09-29T12:47:27;98820.13;;;20.33;100.00
54407;BME280;40313;50.308;30.374;2022-09-29T12:50:03;98819.63;;;20.30;100.00
54407;BME280;40313;50.308;30.374;2022-09-29T12:52:35;98822.09;;;20.31;100.00
54407;BME280;40313;50.308;30.374;2022-09-29T12:55:12;98826.22;;;20.34;100.00
54407;BME280;40313;50.308;30.374;2022-09-29T12:57:45;98824.22;;;20.36;100.00
54407;BME280;40313;50.308;30.374;2022-09-29T13:00:15;98811.66;;;20.30;100.00
54407;BME280;40313;50.308;30.374;2022-09-29T13:03:08;98812.84;;;20.19;100.00
54407;BME280;40313;50.308;30.374;2022-09-29T13:05:54;98817.53;;;19.92;100.00
54407;BME280;40313;50.308;30.374;2022-09-29T13:08:47;98812.88;;;19.86;100.00